createdAt,value
2023-02-19T00:00:09.350Z,999.30
2023-02-19T00:00:19.383Z,999.39
2023-02-19T00:00:29.342Z,999.30
2023-02-19T00:00:39.375Z,999.34
2023-02-19T00:00:49.445Z,999.29
2023-02-19T00:00:59.455Z,999.33
2023-02-19T00:01:09.651Z,999.37
2023-02-19T00:01:19.356Z,999.34
2023-02-19T00:01:29.342Z,999.38
2023-02-19T00:01:39.355Z,999.39
2023-02-19T00:01:49.344Z,999.35
2023-02-19T00:01:59.335Z,999.34
2023-02-19T00:02:09.356Z,999.31
2023-02-19T00:02:20.069Z,999.32
2023-02-19T00:02:30.014Z,999.40
2023-02-19T00:02:39.450Z,999.34
2023-02-19T00:02:49.336Z,999.39
2023-02-19T00:02:59.342Z,999.29
2023-02-19T00:03:09.375Z,999.34
2023-02-19T00:03:19.432Z,999.27
2023-02-19T00:03:29.388Z,999.30
2023-02-19T00:03:40.083Z,999.31
2023-02-19T00:03:49.426Z,999.30
2023-02-19T00:03:59.330Z,999.29
2023-02-19T00:04:09.376Z,999.34
2023-02-19T00:04:19.499Z,999.29
2023-02-19T00:04:29.346Z,999.32
2023-02-19T00:04:39.433Z,999.27
2023-02-19T00:04:49.408Z,999.28
2023-02-19T00:04:59.409Z,999.23
2023-02-19T00:05:09.369Z,999.25
2023-02-19T00:05:19.334Z,999.27
2023-02-19T00:05:29.333Z,999.26
2023-02-19T00:05:39.321Z,999.24
2023-02-19T00:05:49.334Z,999.29
2023-02-19T00:05:59.345Z,999.37
2023-02-19T00:06:09.328Z,999.25
2023-02-19T00:06:19.325Z,999.30
2023-02-19T00:06:29.380Z,999.29
2023-02-19T00:06:40.014Z,999.15
2023-02-19T00:06:49.510Z,999.22
2023-02-19T00:06:59.337Z,999.22
2023-02-19T00:07:09.313Z,999.24
2023-02-19T00:07:19.594Z,999.18
2023-02-19T00:07:29.313Z,999.22
2023-02-19T00:07:39.316Z,999.19
2023-02-19T00:07:50.044Z,999.23
2023-02-19T00:07:59.312Z,999.25
2023-02-19T00:08:09.307Z,999.25
2023-02-19T00:08:19.330Z,999.26
2023-02-19T00:08:29.433Z,999.23
2023-02-19T00:08:39.327Z,999.22
2023-02-19T00:08:50.031Z,999.23
2023-02-19T00:08:59.308Z,999.22
2023-02-19T00:09:09.320Z,999.20
2023-02-19T00:09:19.347Z,999.20
2023-02-19T00:09:29.315Z,999.32
2023-02-19T00:09:39.306Z,999.34
2023-02-19T00:09:49.309Z,999.23
2023-02-19T00:09:59.302Z,999.37
2023-02-19T00:10:09.336Z,999.26
2023-02-19T00:10:19.310Z,999.13
2023-02-19T00:10:29.310Z,999.19
2023-02-19T00:10:39.343Z,999.19
2023-02-19T00:10:49.367Z,999.20
2023-02-19T00:10:59.444Z,999.21
2023-02-19T00:11:09.669Z,999.18
2023-02-19T00:11:19.301Z,999.22
2023-02-19T00:11:29.294Z,999.20
2023-02-19T00:11:39.315Z,999.15
2023-02-19T00:11:49.300Z,999.24
2023-02-19T00:11:59.292Z,999.15
2023-02-19T00:12:09.317Z,999.29
2023-02-19T00:12:19.292Z,999.18
2023-02-19T00:12:29.300Z,999.11
2023-02-19T00:12:39.291Z,999.17
2023-02-19T00:12:49.288Z,999.26
2023-02-19T00:13:00.050Z,999.21
2023-02-19T00:13:09.311Z,999.19
2023-02-19T00:13:19.288Z,999.12
2023-02-19T00:13:29.298Z,999.16
2023-02-19T00:13:39.443Z,999.21
2023-02-19T00:13:49.298Z,999.17
2023-02-19T00:13:59.296Z,999.20
2023-02-19T00:14:09.310Z,999.16
2023-02-19T00:14:19.349Z,999.19
2023-02-19T00:14:30.025Z,999.15
2023-02-19T00:14:39.303Z,999.22
2023-02-19T00:14:50.011Z,999.20
2023-02-19T00:14:59.391Z,999.21
2023-02-19T00:15:09.283Z,999.16
2023-02-19T00:15:20.035Z,999.17
2023-02-19T00:15:29.332Z,999.17
2023-02-19T00:15:39.340Z,999.20
2023-02-19T00:15:49.303Z,999.23
2023-02-19T00:15:59.308Z,999.19
2023-02-19T00:16:09.282Z,999.08
2023-02-19T00:16:19.281Z,999.12
2023-02-19T00:16:29.301Z,999.15
2023-02-19T00:16:39.278Z,999.13
2023-02-19T00:16:49.270Z,999.20
2023-02-19T00:16:59.316Z,999.19
2023-02-19T00:17:09.274Z,999.17
2023-02-19T00:17:19.287Z,999.22
2023-02-19T00:17:29.280Z,999.09
2023-02-19T00:17:39.284Z,999.18
2023-02-19T00:17:49.280Z,999.19
2023-02-19T00:17:59.279Z,999.23
2023-02-19T00:18:09.270Z,999.24
2023-02-19T00:18:19.310Z,999.17
2023-02-19T00:18:30.182Z,999.12
2023-02-19T00:18:39.291Z,999.20
2023-02-19T00:18:49.640Z,999.17
2023-02-19T00:18:59.384Z,999.16
2023-02-19T00:19:09.279Z,999.22
2023-02-19T00:19:19.264Z,999.23
2023-02-19T00:19:29.275Z,999.12
2023-02-19T00:19:40.020Z,999.21
2023-02-19T00:19:49.334Z,999.20
2023-02-19T00:19:59.269Z,999.18
2023-02-19T00:20:09.261Z,999.18
2023-02-19T00:20:19.312Z,999.12
2023-02-19T00:20:29.268Z,999.15
2023-02-19T00:20:39.265Z,999.13
2023-02-19T00:20:49.272Z,999.23
2023-02-19T00:20:59.264Z,999.21
2023-02-19T00:21:09.646Z,999.19
2023-02-19T00:21:19.269Z,999.16
2023-02-19T00:21:29.256Z,999.17
2023-02-19T00:21:39.269Z,999.19
2023-02-19T00:21:49.260Z,999.16
2023-02-19T00:21:59.268Z,999.18
2023-02-19T00:22:09.249Z,999.13
2023-02-19T00:22:19.256Z,999.13
2023-02-19T00:22:29.259Z,999.15
2023-02-19T00:22:39.381Z,998.94
2023-02-19T00:22:49.361Z,999.08
2023-02-19T00:22:59.319Z,999.15
2023-02-19T00:23:09.250Z,999.14
2023-02-19T00:23:19.243Z,999.18
2023-02-19T00:23:30.038Z,999.13
2023-02-19T00:23:39.277Z,999.18
2023-02-19T00:23:49.240Z,999.06
2023-02-19T00:23:59.320Z,999.09
2023-02-19T00:24:09.260Z,999.13
2023-02-19T00:24:19.296Z,999.13
2023-02-19T00:24:29.254Z,999.19
2023-02-19T00:24:39.269Z,999.12
2023-02-19T00:24:49.378Z,999.15
2023-02-19T00:24:59.251Z,999.20
2023-02-19T00:25:09.259Z,999.17
2023-02-19T00:25:19.264Z,999.11
2023-02-19T00:25:29.233Z,999.10
2023-02-19T00:25:39.238Z,999.15
2023-02-19T00:25:49.231Z,999.17
2023-02-19T00:26:12.253Z,999.11
2023-02-19T00:26:18.261Z,999.11
2023-02-19T00:26:19.246Z,999.14
2023-02-19T00:26:29.238Z,999.12
2023-02-19T00:26:39.330Z,999.14
2023-02-19T00:26:49.268Z,999.14
2023-02-19T00:27:00.022Z,999.09
2023-02-19T00:27:09.335Z,999.17
2023-02-19T00:27:19.246Z,999.14
2023-02-19T00:27:29.238Z,999.10
2023-02-19T00:27:39.253Z,999.17
2023-02-19T00:27:49.262Z,999.12
2023-02-19T00:27:59.227Z,999.19
2023-02-19T00:28:09.236Z,999.19
2023-02-19T00:28:19.239Z,999.13
2023-02-19T00:28:29.221Z,999.18
2023-02-19T00:28:39.247Z,999.20
2023-02-19T00:28:49.288Z,999.17
2023-02-19T00:28:59.259Z,999.21
2023-02-19T00:29:09.340Z,999.19
2023-02-19T00:29:19.244Z,999.13
2023-02-19T00:29:29.240Z,999.12
2023-02-19T00:29:39.224Z,999.16
2023-02-19T00:29:49.225Z,999.28
2023-02-19T00:29:59.245Z,999.11
2023-02-19T00:30:09.378Z,999.22
2023-02-19T00:30:19.287Z,999.28
2023-02-19T00:30:29.240Z,999.05
2023-02-19T00:30:39.239Z,999.03
2023-02-19T00:30:49.249Z,999.08
2023-02-19T00:30:59.261Z,999.18
2023-02-19T00:31:10.502Z,998.98
2023-02-19T00:31:19.335Z,998.93
2023-02-19T00:31:32.208Z,999.04
2023-02-19T00:31:39.368Z,999.20
2023-02-19T00:31:49.360Z,999.04
2023-02-19T00:31:59.292Z,999.02
2023-02-19T00:32:09.254Z,999.13
2023-02-19T00:32:19.243Z,999.08
2023-02-19T00:32:29.237Z,999.10
2023-02-19T00:32:39.216Z,999.15
2023-02-19T00:32:49.205Z,999.13
2023-02-19T00:32:59.244Z,999.21
2023-02-19T00:33:09.250Z,999.03
2023-02-19T00:33:19.251Z,999.04
2023-02-19T00:33:29.211Z,999.07
2023-02-19T00:33:39.233Z,999.06
2023-02-19T00:33:49.208Z,999.10
2023-02-19T00:33:59.217Z,999.08
2023-02-19T00:34:09.212Z,999.06
2023-02-19T00:34:19.264Z,999.07
2023-02-19T00:34:29.196Z,999.11
2023-02-19T00:34:40.020Z,999.13
2023-02-19T00:34:49.216Z,999.10
2023-02-19T00:34:59.251Z,999.03
2023-02-19T00:35:09.293Z,998.96
2023-02-19T00:35:20.037Z,998.99
2023-02-19T00:35:29.196Z,999.07
2023-02-19T00:35:39.199Z,999.08
2023-02-19T00:35:52.049Z,999.06
2023-02-19T00:35:59.200Z,999.09
2023-02-19T00:36:09.190Z,999.05
2023-02-19T00:36:19.225Z,999.07
2023-02-19T00:36:29.206Z,999.08
2023-02-19T00:36:39.208Z,999.13
2023-02-19T00:36:49.217Z,999.02
2023-02-19T00:36:59.205Z,999.05
2023-02-19T00:37:09.196Z,999.08
2023-02-19T00:37:19.209Z,998.92
2023-02-19T00:37:29.191Z,999.07
2023-02-19T00:37:39.196Z,999.02
2023-02-19T00:37:49.263Z,999.02
2023-02-19T00:37:59.243Z,999.02
2023-02-19T00:38:09.305Z,998.99
2023-02-19T00:38:19.231Z,999.06
2023-02-19T00:38:29.268Z,999.09
2023-02-19T00:38:39.186Z,999.08
2023-02-19T00:38:49.212Z,999.06
2023-02-19T00:38:59.185Z,999.05
2023-02-19T00:39:09.317Z,999.10
2023-02-19T00:39:19.262Z,999.08
2023-02-19T00:39:29.333Z,999.10
2023-02-19T00:39:39.196Z,999.12
2023-02-19T00:39:49.190Z,999.16
2023-02-19T00:39:59.187Z,999.10
2023-02-19T00:40:09.195Z,999.14
2023-02-19T00:40:19.193Z,999.07
2023-02-19T00:40:29.186Z,998.98
2023-02-19T00:40:39.187Z,998.93
2023-02-19T00:40:49.249Z,999.07
2023-02-19T00:41:00.030Z,999.12
2023-02-19T00:41:09.541Z,999.10
2023-02-19T00:41:19.326Z,999.03
2023-02-19T00:41:29.167Z,999.07
2023-02-19T00:41:39.204Z,999.09
2023-02-19T00:41:49.169Z,999.04
2023-02-19T00:41:59.179Z,999.00
2023-02-19T00:42:09.180Z,998.98
2023-02-19T00:42:19.368Z,998.98
2023-02-19T00:42:30.061Z,998.98
2023-02-19T00:42:39.174Z,999.07
2023-02-19T00:42:49.176Z,999.05
2023-02-19T00:42:59.200Z,999.05
2023-02-19T00:43:09.212Z,999.02
2023-02-19T00:43:20.034Z,999.00
2023-02-19T00:43:29.270Z,999.03
2023-02-19T00:43:39.162Z,999.17
2023-02-19T00:43:49.170Z,998.94
2023-02-19T00:43:59.179Z,998.88
2023-02-19T00:44:09.165Z,998.98
2023-02-19T00:44:20.043Z,999.05
2023-02-19T00:44:29.207Z,999.00
2023-02-19T00:44:39.333Z,999.01
2023-02-19T00:44:49.187Z,999.04
2023-02-19T00:44:59.168Z,999.05
2023-02-19T00:45:09.186Z,998.96
2023-02-19T00:45:19.200Z,999.04
2023-02-19T00:45:29.163Z,999.03
2023-02-19T00:45:39.159Z,999.06
2023-02-19T00:45:49.193Z,998.99
2023-02-19T00:45:59.200Z,998.96
2023-02-19T00:46:09.209Z,999.01
2023-02-19T00:46:19.277Z,999.19
2023-02-19T00:46:29.241Z,999.01
2023-02-19T00:46:39.219Z,998.95
2023-02-19T00:46:49.209Z,998.90
2023-02-19T00:46:59.160Z,998.84
2023-02-19T00:47:10.038Z,998.95
2023-02-19T00:47:20.033Z,998.79
2023-02-19T00:47:30.104Z,998.99
2023-02-19T00:47:39.151Z,998.91
2023-02-19T00:47:49.144Z,998.89
2023-02-19T00:47:59.149Z,998.88
2023-02-19T00:48:09.159Z,998.92
2023-02-19T00:48:19.147Z,998.91
2023-02-19T00:48:29.147Z,998.96
2023-02-19T00:48:39.160Z,999.13
2023-02-19T00:48:49.150Z,999.06
2023-02-19T00:48:59.218Z,999.01
2023-02-19T00:49:09.156Z,999.00
2023-02-19T00:49:19.198Z,998.96
2023-02-19T00:49:29.140Z,998.95
2023-02-19T00:49:39.193Z,998.93
2023-02-19T00:49:49.219Z,998.85
2023-02-19T00:49:59.153Z,999.11
2023-02-19T00:50:09.149Z,998.96
2023-02-19T00:50:19.132Z,999.04
2023-02-19T00:50:29.153Z,999.03
2023-02-19T00:50:39.215Z,998.94
2023-02-19T00:50:49.134Z,998.84
2023-02-19T00:50:59.155Z,998.99
2023-02-19T00:51:09.508Z,998.97
2023-02-19T00:51:19.132Z,999.05
2023-02-19T00:51:30.046Z,998.93
2023-02-19T00:51:39.338Z,999.03
2023-02-19T00:51:49.163Z,998.88
2023-02-19T00:51:59.134Z,999.01
2023-02-19T00:52:09.140Z,998.94
2023-02-19T00:52:19.135Z,998.95
2023-02-19T00:52:29.148Z,998.94
2023-02-19T00:52:39.126Z,998.95
2023-02-19T00:52:49.130Z,998.97
2023-02-19T00:52:59.127Z,999.03
2023-02-19T00:53:09.145Z,998.92
2023-02-19T00:53:19.138Z,998.95
2023-02-19T00:53:29.133Z,998.95
2023-02-19T00:53:39.163Z,998.93
2023-02-19T00:53:49.154Z,998.95
2023-02-19T00:53:59.246Z,998.95
2023-02-19T00:54:09.119Z,999.01
2023-02-19T00:54:19.147Z,998.86
2023-02-19T00:54:29.148Z,998.88
2023-02-19T00:54:39.130Z,998.94
2023-02-19T00:54:49.122Z,998.95
2023-02-19T00:54:59.174Z,999.01
2023-02-19T00:55:09.128Z,998.91
2023-02-19T00:55:22.230Z,998.94
2023-02-19T00:55:29.128Z,998.96
2023-02-19T00:55:40.051Z,999.06
2023-02-19T00:55:49.232Z,999.08
2023-02-19T00:55:59.114Z,998.99
2023-02-19T00:56:09.129Z,998.88
2023-02-19T00:56:19.115Z,998.86
2023-02-19T00:56:29.118Z,998.94
2023-02-19T00:56:39.129Z,998.89
2023-02-19T00:56:49.140Z,998.95
2023-02-19T00:56:59.104Z,998.92
2023-02-19T00:57:09.110Z,998.96
2023-02-19T00:57:19.114Z,998.95
2023-02-19T00:57:29.145Z,998.90
2023-02-19T00:57:39.108Z,998.82
2023-02-19T00:57:49.117Z,998.97
2023-02-19T00:57:59.108Z,998.90
2023-02-19T00:58:09.112Z,998.87
2023-02-19T00:58:19.132Z,998.95
2023-02-19T00:58:29.107Z,998.87
2023-02-19T00:58:39.169Z,998.88
2023-02-19T00:58:49.116Z,998.92
2023-02-19T00:58:59.113Z,998.82
2023-02-19T00:59:09.121Z,998.77
2023-02-19T00:59:19.101Z,998.96
2023-02-19T00:59:29.121Z,998.93
2023-02-19T00:59:39.115Z,998.81
2023-02-19T00:59:49.395Z,998.84
2023-02-19T00:59:59.197Z,998.88
2023-02-19T01:00:09.262Z,998.85
2023-02-19T01:00:19.186Z,998.77
2023-02-19T01:00:29.100Z,998.54
2023-02-19T01:00:39.231Z,998.89
2023-02-19T01:00:49.092Z,998.81
2023-02-19T01:00:59.121Z,998.76
2023-02-19T01:01:09.533Z,998.75
2023-02-19T01:01:19.123Z,998.86
2023-02-19T01:01:29.159Z,998.88
2023-02-19T01:01:39.252Z,998.85
2023-02-19T01:01:49.122Z,998.89
2023-02-19T01:01:59.138Z,998.86
2023-02-19T01:02:09.133Z,998.92
2023-02-19T01:02:19.097Z,998.86
2023-02-19T01:02:29.094Z,998.81
2023-02-19T01:02:39.124Z,998.91
2023-02-19T01:02:49.110Z,998.82
2023-02-19T01:02:59.098Z,998.80
2023-02-19T01:03:09.090Z,998.81
2023-02-19T01:03:19.104Z,998.77
2023-02-19T01:03:29.135Z,998.88
2023-02-19T01:03:39.083Z,998.85
2023-02-19T01:03:50.135Z,998.84
2023-02-19T01:03:59.216Z,998.83
2023-02-19T01:04:09.093Z,998.91
2023-02-19T01:04:19.083Z,998.85
2023-02-19T01:04:29.187Z,998.88
2023-02-19T01:04:39.112Z,998.84
2023-02-19T01:04:49.156Z,998.86
2023-02-19T01:04:59.088Z,998.86
2023-02-19T01:05:09.093Z,998.83
2023-02-19T01:05:19.162Z,998.90
2023-02-19T01:05:29.249Z,998.81
2023-02-19T01:05:39.070Z,998.89
2023-02-19T01:05:49.076Z,998.91
2023-02-19T01:05:59.097Z,998.86
2023-02-19T01:06:09.068Z,998.93
2023-02-19T01:06:19.101Z,998.81
2023-02-19T01:06:29.067Z,998.82
2023-02-19T01:06:39.110Z,998.87
2023-02-19T01:06:49.181Z,998.73
2023-02-19T01:06:59.071Z,998.81
2023-02-19T01:07:10.129Z,998.64
2023-02-19T01:07:19.081Z,998.73
2023-02-19T01:07:29.080Z,998.76
2023-02-19T01:07:39.070Z,998.75
2023-02-19T01:07:49.204Z,998.87
2023-02-19T01:07:59.111Z,998.80
2023-02-19T01:08:09.082Z,998.72
2023-02-19T01:08:19.068Z,998.79
2023-02-19T01:08:30.046Z,998.87
2023-02-19T01:08:39.096Z,998.67
2023-02-19T01:08:49.065Z,998.74
2023-02-19T01:08:59.051Z,998.91
2023-02-19T01:09:09.085Z,998.76
2023-02-19T01:09:19.052Z,998.80
2023-02-19T01:09:29.059Z,998.80
2023-02-19T01:09:39.072Z,998.81
2023-02-19T01:09:49.058Z,998.79
2023-02-19T01:09:59.086Z,998.78
2023-02-19T01:10:09.068Z,998.79
2023-02-19T01:10:19.134Z,998.80
2023-02-19T01:10:29.105Z,998.68
2023-02-19T01:10:39.057Z,998.90
2023-02-19T01:10:49.058Z,998.70
2023-02-19T01:10:59.070Z,998.80
2023-02-19T01:11:09.488Z,998.74
2023-02-19T01:11:20.044Z,998.70
2023-02-19T01:11:29.051Z,998.61
2023-02-19T01:11:39.082Z,998.76
2023-02-19T01:11:50.101Z,998.71
2023-02-19T01:11:59.074Z,998.74
2023-02-19T01:12:09.102Z,998.69
2023-02-19T01:12:19.039Z,998.72
2023-02-19T01:12:29.049Z,998.71
2023-02-19T01:12:39.037Z,998.76
2023-02-19T01:12:49.046Z,998.65
2023-02-19T01:12:59.060Z,998.68
2023-02-19T01:13:09.040Z,998.83
2023-02-19T01:13:19.041Z,998.82
2023-02-19T01:13:29.074Z,998.80
2023-02-19T01:13:39.055Z,998.76
2023-02-19T01:13:49.070Z,998.77
2023-02-19T01:13:59.029Z,998.74
2023-02-19T01:14:09.042Z,998.74
2023-02-19T01:14:19.053Z,998.71
2023-02-19T01:14:29.072Z,998.69
2023-02-19T01:14:39.070Z,998.78
2023-02-19T01:14:49.037Z,998.74
2023-02-19T01:14:59.046Z,998.78
2023-02-19T01:15:09.023Z,998.77
2023-02-19T01:15:19.040Z,998.70
2023-02-19T01:15:29.027Z,998.71
2023-02-19T01:15:39.161Z,998.70
2023-02-19T01:15:49.070Z,998.63
2023-02-19T01:15:59.087Z,998.71
2023-02-19T01:16:09.124Z,998.66
2023-02-19T01:16:19.080Z,998.69
2023-02-19T01:16:29.116Z,998.62
2023-02-19T01:16:39.038Z,998.36
2023-02-19T01:16:49.057Z,998.64
2023-02-19T01:16:59.033Z,998.51
2023-02-19T01:17:09.123Z,998.77
2023-02-19T01:17:19.029Z,998.65
2023-02-19T01:17:29.020Z,998.60
2023-02-19T01:17:39.018Z,998.64
2023-02-19T01:17:49.055Z,998.62
2023-02-19T01:17:59.014Z,998.66
2023-02-19T01:18:09.052Z,998.62
2023-02-19T01:18:19.023Z,998.59
2023-02-19T01:18:29.012Z,998.65
2023-02-19T01:18:39.056Z,998.55
2023-02-19T01:18:49.556Z,998.57
2023-02-19T01:18:59.020Z,998.71
2023-02-19T01:19:09.051Z,998.64
2023-02-19T01:19:19.018Z,998.58
2023-02-19T01:19:29.538Z,998.58
2023-02-19T01:19:39.011Z,998.60
2023-02-19T01:19:49.012Z,998.58
2023-02-19T01:19:59.032Z,998.62
2023-02-19T01:20:09.060Z,998.54
2023-02-19T01:20:19.067Z,998.58
2023-02-19T01:20:29.012Z,998.57
2023-02-19T01:20:39.554Z,998.59
2023-02-19T01:20:49.054Z,998.54
2023-02-19T01:20:59.009Z,998.54
2023-02-19T01:21:09.500Z,998.57
2023-02-19T01:21:19.000Z,998.59
2023-02-19T01:21:29.031Z,998.59
2023-02-19T01:21:39.000Z,998.56
2023-02-19T01:21:49.016Z,998.55
2023-02-19T01:21:59.011Z,998.55
2023-02-19T01:22:09.004Z,998.54
2023-02-19T01:22:19.008Z,998.58
2023-02-19T01:22:29.022Z,998.51
2023-02-19T01:22:38.999Z,998.53
2023-02-19T01:22:49.008Z,998.52
2023-02-19T01:22:59.018Z,998.51
2023-02-19T01:23:09.021Z,998.54
2023-02-19T01:23:19.006Z,998.46
2023-02-19T01:23:29.009Z,998.47
2023-02-19T01:23:38.995Z,998.52
2023-02-19T01:23:49.002Z,998.47
2023-02-19T01:23:59.060Z,998.56
2023-02-19T01:24:09.015Z,998.43
2023-02-19T01:24:19.035Z,998.50
2023-02-19T01:24:28.990Z,998.36
2023-02-19T01:24:38.988Z,998.37
2023-02-19T01:24:48.994Z,998.36
2023-02-19T01:24:58.988Z,998.41
2023-02-19T01:25:08.989Z,998.50
2023-02-19T01:25:19.012Z,998.33
2023-02-19T01:25:29.001Z,998.38
2023-02-19T01:25:38.977Z,998.51
2023-02-19T01:25:49.109Z,998.40
2023-02-19T01:25:59.152Z,998.38
2023-02-19T01:26:08.976Z,998.41
2023-02-19T01:26:18.981Z,998.43
2023-02-19T01:26:29.004Z,998.37
2023-02-19T01:26:38.983Z,998.42
2023-02-19T01:26:48.980Z,998.43
2023-02-19T01:26:58.998Z,998.44
2023-02-19T01:27:08.998Z,998.40
2023-02-19T01:27:18.978Z,998.34
2023-02-19T01:27:28.976Z,998.35
2023-02-19T01:27:38.982Z,998.38
2023-02-19T01:27:48.968Z,998.36
2023-02-19T01:27:58.974Z,998.35
2023-02-19T01:28:08.995Z,998.41
2023-02-19T01:28:18.987Z,998.45
2023-02-19T01:28:29.022Z,998.41
2023-02-19T01:28:38.970Z,998.39
2023-02-19T01:28:48.997Z,998.39
2023-02-19T01:28:58.973Z,998.44
2023-02-19T01:29:09.008Z,998.41
2023-02-19T01:29:18.983Z,998.42
2023-02-19T01:29:28.984Z,998.42
2023-02-19T01:29:39.016Z,998.38
2023-02-19T01:29:48.959Z,998.45
2023-02-19T01:29:59.006Z,998.43
2023-02-19T01:30:08.977Z,998.39
2023-02-19T01:30:19.016Z,998.44
2023-02-19T01:30:29.047Z,998.51
2023-02-19T01:30:38.986Z,998.46
2023-02-19T01:30:48.960Z,998.48
2023-02-19T01:30:58.989Z,998.45
2023-02-19T01:31:09.579Z,998.47
2023-02-19T01:31:19.103Z,998.44
2023-02-19T01:31:29.081Z,998.41
2023-02-19T01:31:39.604Z,998.37
2023-02-19T01:31:49.035Z,998.41
2023-02-19T01:31:59.126Z,998.47
2023-02-19T01:32:09.093Z,998.42
2023-02-19T01:32:18.975Z,998.46
2023-02-19T01:32:29.009Z,998.45
2023-02-19T01:32:39.056Z,998.40
2023-02-19T01:32:48.953Z,998.40
2023-02-19T01:32:59.054Z,998.46
2023-02-19T01:33:08.945Z,998.45
2023-02-19T01:33:19.538Z,998.35
2023-02-19T01:33:28.954Z,998.39
2023-02-19T01:33:38.944Z,998.37
2023-02-19T01:33:48.959Z,998.42
2023-02-19T01:33:59.635Z,998.37
2023-02-19T01:34:08.997Z,998.39
2023-02-19T01:34:19.012Z,998.40
2023-02-19T01:34:28.947Z,998.34
2023-02-19T01:34:38.961Z,998.39
2023-02-19T01:34:48.940Z,998.34
2023-02-19T01:34:59.023Z,998.34
2023-02-19T01:35:08.937Z,998.34
2023-02-19T01:35:18.938Z,998.37
2023-02-19T01:35:28.955Z,998.45
2023-02-19T01:35:38.946Z,998.37
2023-02-19T01:35:48.939Z,998.36
2023-02-19T01:35:58.957Z,998.37
2023-02-19T01:36:08.941Z,998.29
2023-02-19T01:36:19.192Z,998.35
2023-02-19T01:36:29.032Z,998.25
2023-02-19T01:36:38.949Z,998.22
2023-02-19T01:36:48.936Z,998.28
2023-02-19T01:36:58.977Z,998.34
2023-02-19T01:37:09.568Z,998.26
2023-02-19T01:37:19.550Z,998.29
2023-02-19T01:37:28.974Z,998.26
2023-02-19T01:37:38.952Z,998.24
2023-02-19T01:37:48.942Z,998.23
2023-02-19T01:37:58.942Z,998.25
2023-02-19T01:38:08.945Z,998.27
2023-02-19T01:38:18.940Z,998.29
2023-02-19T01:38:28.926Z,998.19
2023-02-19T01:38:39.072Z,998.21
2023-02-19T01:38:48.951Z,998.25
2023-02-19T01:38:58.936Z,998.24
2023-02-19T01:39:08.933Z,998.25
2023-02-19T01:39:18.924Z,998.33
2023-02-19T01:39:28.952Z,998.27
2023-02-19T01:39:38.925Z,998.18
2023-02-19T01:39:48.931Z,998.23
2023-02-19T01:39:58.935Z,998.31
2023-02-19T01:40:08.929Z,998.23
2023-02-19T01:40:18.968Z,998.20
2023-02-19T01:40:28.935Z,998.26
2023-02-19T01:40:38.925Z,998.26
2023-02-19T01:40:48.921Z,998.18
2023-02-19T01:40:58.922Z,998.28
2023-02-19T01:41:09.461Z,998.29
2023-02-19T01:41:18.914Z,998.24
2023-02-19T01:41:28.969Z,998.26
2023-02-19T01:41:38.921Z,998.18
2023-02-19T01:41:48.909Z,998.26
2023-02-19T01:41:59.568Z,998.19
2023-02-19T01:42:08.911Z,998.23
2023-02-19T01:42:18.938Z,998.25
2023-02-19T01:42:28.912Z,998.25
2023-02-19T01:42:38.922Z,998.20
2023-02-19T01:42:48.917Z,998.17
2023-02-19T01:42:58.926Z,998.20
2023-02-19T01:43:08.911Z,998.24
2023-02-19T01:43:18.942Z,998.20
2023-02-19T01:43:28.921Z,998.21
2023-02-19T01:43:39.049Z,998.24
2023-02-19T01:43:48.915Z,998.24
2023-02-19T01:43:58.930Z,998.22
2023-02-19T01:44:08.933Z,998.26
2023-02-19T01:44:18.901Z,998.20
2023-02-19T01:44:29.552Z,998.24
2023-02-19T01:44:39.009Z,998.17
2023-02-19T01:44:48.898Z,998.14
2023-02-19T01:44:58.913Z,998.19
2023-02-19T01:45:08.905Z,998.21
2023-02-19T01:45:18.921Z,998.23
2023-02-19T01:45:28.902Z,998.26
2023-02-19T01:45:38.994Z,998.17
2023-02-19T01:45:48.895Z,998.18
2023-02-19T01:45:58.895Z,998.10
2023-02-19T01:46:08.906Z,998.22
2023-02-19T01:46:18.948Z,998.15
2023-02-19T01:46:28.974Z,998.20
2023-02-19T01:46:39.175Z,998.33
2023-02-19T01:46:48.976Z,998.19
2023-02-19T01:46:58.944Z,998.18
2023-02-19T01:47:08.945Z,998.12
2023-02-19T01:47:18.900Z,998.18
2023-02-19T01:47:28.911Z,998.06
2023-02-19T01:47:38.911Z,998.12
2023-02-19T01:47:48.895Z,998.13
2023-02-19T01:47:58.926Z,998.10
2023-02-19T01:48:08.914Z,998.07
2023-02-19T01:48:18.922Z,998.07
2023-02-19T01:48:28.894Z,998.05
2023-02-19T01:48:39.673Z,998.11
2023-02-19T01:48:48.895Z,998.09
2023-02-19T01:48:58.901Z,998.03
2023-02-19T01:49:08.892Z,998.02
2023-02-19T01:49:18.894Z,998.07
2023-02-19T01:49:29.558Z,998.12
2023-02-19T01:49:38.914Z,998.05
2023-02-19T01:49:48.986Z,998.04
2023-02-19T01:49:58.910Z,998.05
2023-02-19T01:50:08.901Z,998.07
2023-02-19T01:50:18.892Z,998.07
2023-02-19T01:50:28.902Z,998.12
2023-02-19T01:50:38.898Z,998.05
2023-02-19T01:50:48.889Z,998.08
2023-02-19T01:50:58.915Z,998.10
2023-02-19T01:51:09.179Z,998.04
2023-02-19T01:51:18.873Z,998.02
2023-02-19T01:51:28.878Z,998.06
2023-02-19T01:51:38.872Z,998.08
2023-02-19T01:51:48.951Z,998.06
2023-02-19T01:51:58.899Z,998.02
2023-02-19T01:52:08.895Z,998.06
2023-02-19T01:52:19.556Z,998.02
2023-02-19T01:52:28.875Z,998.03
2023-02-19T01:52:38.898Z,998.06
2023-02-19T01:52:49.547Z,998.04
2023-02-19T01:52:58.884Z,998.06
2023-02-19T01:53:08.887Z,998.08
2023-02-19T01:53:18.877Z,998.08
2023-02-19T01:53:28.874Z,998.11
2023-02-19T01:53:38.890Z,998.07
2023-02-19T01:53:48.891Z,998.09
2023-02-19T01:53:58.865Z,998.01
2023-02-19T01:54:08.894Z,998.06
2023-02-19T01:54:18.866Z,998.05
2023-02-19T01:54:28.878Z,998.07
2023-02-19T01:54:38.906Z,998.03
2023-02-19T01:54:48.894Z,998.06
2023-02-19T01:54:58.858Z,998.06
2023-02-19T01:55:08.866Z,998.02
2023-02-19T01:55:18.957Z,998.01
2023-02-19T01:55:28.861Z,998.06
2023-02-19T01:55:38.881Z,998.07
2023-02-19T01:55:48.918Z,998.10
2023-02-19T01:55:58.871Z,998.06
2023-02-19T01:56:09.557Z,998.10
2023-02-19T01:56:18.881Z,998.07
2023-02-19T01:56:28.854Z,998.03
2023-02-19T01:56:38.864Z,998.07
2023-02-19T01:56:49.565Z,998.10
2023-02-19T01:56:59.635Z,998.05
2023-02-19T01:57:08.880Z,997.98
2023-02-19T01:57:18.856Z,998.08
2023-02-19T01:57:28.848Z,998.00
2023-02-19T01:57:38.847Z,997.99
2023-02-19T01:57:48.851Z,997.98
2023-02-19T01:57:58.857Z,998.01
2023-02-19T01:58:08.849Z,997.99
2023-02-19T01:58:18.848Z,998.01
2023-02-19T01:58:28.853Z,997.98
2023-02-19T01:58:38.864Z,997.99
2023-02-19T01:58:48.846Z,998.00
2023-02-19T01:58:58.856Z,997.97
2023-02-19T01:59:08.848Z,998.02
2023-02-19T01:59:18.857Z,997.99
2023-02-19T01:59:28.859Z,997.99
2023-02-19T01:59:38.872Z,997.95
2023-02-19T01:59:48.898Z,997.97
2023-02-19T01:59:58.853Z,997.98
2023-02-19T02:00:08.835Z,997.99
2023-02-19T02:00:18.844Z,998.00
2023-02-19T02:00:28.911Z,998.02
2023-02-19T02:00:38.858Z,997.99
2023-02-19T02:00:48.867Z,998.01
2023-02-19T02:00:58.911Z,997.97
2023-02-19T02:01:09.177Z,997.95
2023-02-19T02:01:18.841Z,997.99
2023-02-19T02:01:28.832Z,997.93
2023-02-19T02:01:38.903Z,998.02
2023-02-19T02:01:49.658Z,998.07
2023-02-19T02:01:58.878Z,997.89
2023-02-19T02:02:09.015Z,997.97
2023-02-19T02:02:18.962Z,997.96
2023-02-19T02:02:28.831Z,997.96
2023-02-19T02:02:38.848Z,997.98
2023-02-19T02:02:48.871Z,998.02
2023-02-19T02:02:58.837Z,997.95
2023-02-19T02:03:08.846Z,997.97
2023-02-19T02:03:18.844Z,997.97
2023-02-19T02:03:28.822Z,997.94
2023-02-19T02:03:38.833Z,997.96
2023-02-19T02:03:48.908Z,997.97
2023-02-19T02:03:58.829Z,998.00
2023-02-19T02:04:08.832Z,997.91
2023-02-19T02:04:18.831Z,997.98
2023-02-19T02:04:28.824Z,997.96
2023-02-19T02:04:38.830Z,997.96
2023-02-19T02:04:48.832Z,997.98